sensor_id;sensor_type;location;lat;lon;timestamp;pressure;altitude;pressure_sealevel;temperature;humidity
17309;BME280;8772;42.804;23.426;2023-02-14T00:00:00;76393.41;;;-140.58;100.00
17309;BME280;8772;42.804;23.426;2023-02-14T00:02:29;76376.97;;;-140.58;100.00
17309;BME280;8772;42.804;23.426;2023-02-14T00:04:56;76370.81;;;-140.58;100.00
17309;BME280;8772;42.804;23.426;2023-02-14T00:07:22;76366.72;;;-140.58;100.00
17309;BME280;8772;42.804;23.426;2023-02-14T00:09:49;76385.19;;;-140.58;100.00
17309;BME280;8772;42.804;23.426;2023-02-14T00:12:16;76364.66;;;-140.58;100.00
17309;BME280;8772;42.804;23.426;2023-02-14T00:14:43;76333.88;;;-140.58;100.00
17309;BME280;8772;42.804;23.426;2023-02-14T00:17:29;76342.06;;;-140.58;100.00
17309;BME280;8772;42.804;23.426;2023-02-14T00:19:55;76344.13;;;-140.58;100.00
17309;BME280;8772;42.804;23.426;2023-02-14T00:22:22;76356.44;;;-140.58;100.00
17309;BME280;8772;42.804;23.426;2023-02-14T00:24:49;76364.66;;;-140.58;100.00
17309;BME280;8772;42.804;23.426;2023-02-14T00:27:16;76362.59;;;-140.58;100.00
17309;BME280;8772;42.804;23.426;2023-02-14T00:29:43;76366.72;;;-140.58;100.00
17309;BME280;8772;42.804;23.426;2023-02-14T00:32:10;76370.81;;;-140.58;100.00
17309;BME280;8772;42.804;23.426;2023-02-14T00:34:39;76360.56;;;-140.58;100.00
17309;BME280;8772;42.804;23.426;2023-02-14T00:37:05;76383.13;;;-140.58;100.00
17309;BME280;8772;42.804;23.426;2023-02-14T00:39:32;76374.94;;;-140.58;100.00
17309;BME280;8772;42.804;23.426;2023-02-14T00:41:59;76383.13;;;-140.58;100.00
17309;BME280;8772;42.804;23.426;2023-02-14T00:44:26;76360.56;;;-140.58;100.00
17309;BME280;8772;42.804;23.426;2023-02-14T00:46:53;76344.13;;;-140.58;100.00
17309;BME280;8772;42.804;23.426;2023-02-14T00:49:20;76356.44;;;-140.58;100.00
17309;BME280;8772;42.804;23.426;2023-02-14T00:51:48;76348.22;;;-140.58;100.00
17309;BME280;8772;42.804;23.426;2023-02-14T00:54:15;76354.41;;;-140.58;100.00
17309;BME280;8772;42.804;23.426;2023-02-14T00:56:42;76366.72;;;-140.58;100.00
17309;BME280;8772;42.804;23.426;2023-02-14T00:59:09;76360.56;;;-140.58;100.00
17309;BME280;8772;42.804;23.426;2023-02-14T01:01:36;76348.22;;;-140.58;100.00
17309;BME280;8772;42.804;23.426;2023-02-14T01:07:26;76335.91;;;-140.58;100.00
17309;BME280;8772;42.804;23.426;2023-02-14T01:09:52;76342.06;;;-140.58;100.00
17309;BME280;8772;42.804;23.426;2023-02-14T01:12:19;76313.34;;;-140.58;100.00
17309;BME280;8772;42.804;23.426;2023-02-14T01:14:46;76325.66;;;-140.58;100.00
17309;BME280;8772;42.804;23.426;2023-02-14T01:17:13;76311.28;;;-140.58;100.00
17309;BME280;8772;42.804;23.426;2023-02-14T01:19:40;76321.53;;;-140.58;100.00
17309;BME280;8772;42.804;23.426;2023-02-14T01:22:07;76329.75;;;-140.58;100.00
17309;BME280;8772;42.804;23.426;2023-02-14T01:24:36;76321.53;;;-140.58;100.00
17309;BME280;8772;42.804;23.426;2023-02-14T01:27:03;76315.38;;;-140.58;100.00
17309;BME280;8772;42.804;23.426;2023-02-14T01:29:30;76333.88;;;-140.58;100.00
17309;BME280;8772;42.804;23.426;2023-02-14T01:31:57;76329.75;;;-140.58;100.00
17309;BME280;8772;42.804;23.426;2023-02-14T01:34:24;76317.44;;;-140.58;100.00
17309;BME280;8772;42.804;23.426;2023-02-14T01:36:51;76292.81;;;-140.58;100.00
17309;BME280;8772;42.804;23.426;2023-02-14T01:39:18;76284.59;;;-140.58;100.00
17309;BME280;8772;42.804;23.426;2023-02-14T01:41:47;76301.00;;;-140.58;100.00
17309;BME280;8772;42.804;23.426;2023-02-14T01:44:55;76313.34;;;-140.58;100.00
17309;BME280;8772;42.804;23.426;2023-02-14T01:47:23;76319.50;;;-140.58;100.00
17309;BME280;8772;42.804;23.426;2023-02-14T01:49:55;76317.44;;;-140.58;100.00
17309;BME280;8772;42.804;23.426;2023-02-14T01:52:28;76321.53;;;-140.58;100.00
17309;BME280;8772;42.804;23.426;2023-02-14T01:55:01;76335.91;;;-140.58;100.00
17309;BME280;8772;42.804;23.426;2023-02-14T01:57:35;76325.66;;;-140.58;100.00
17309;BME280;8772;42.804;23.426;2023-02-14T02:00:05;76329.75;;;-140.58;100.00
17309;BME280;8772;42.804;23.426;2023-02-14T02:02:51;76337.97;;;-140.58;100.00
17309;BME280;8772;42.804;23.426;2023-02-14T02:05:19;76337.97;;;-140.58;100.00
17309;BME280;8772;42.804;23.426;2023-02-14T02:07:49;76323.59;;;-140.58;100.00
17309;BME280;8772;42.804;23.426;2023-02-14T02:10:16;76313.34;;;-140.58;100.00
17309;BME280;8772;42.804;23.426;2023-02-14T02:12:45;76321.53;;;-140.58;100.00
17309;BME280;8772;42.804;23.426;2023-02-14T02:15:13;76325.66;;;-140.58;100.00
17309;BME280;8772;42.804;23.426;2023-02-14T02:17:47;76317.44;;;-140.58;100.00
17309;BME280;8772;42.804;23.426;2023-02-14T02:23:51;76325.66;;;-140.58;100.00
17309;BME280;8772;42.804;23.426;2023-02-14T02:32:50;76284.59;;;-140.58;100.00
17309;BME280;8772;42.804;23.426;2023-02-14T02:36:00;76259.97;;;-140.58;100.00
17309;BME280;8772;42.804;23.426;2023-02-14T02:38:40;76247.63;;;-140.58;100.00
17309;BME280;8772;42.804;23.426;2023-02-14T02:41:17;76251.75;;;-140.58;100.00
17309;BME280;8772;42.804;23.426;2023-02-14T02:43:52;76255.84;;;-140.58;100.00
17309;BME280;8772;42.804;23.426;2023-02-14T02:46:24;76259.97;;;-140.58;100.00
17309;BME280;8772;42.804;23.426;2023-02-14T02:49:13;76268.16;;;-140.58;100.00
17309;BME280;8772;42.804;23.426;2023-02-14T02:52:08;76284.59;;;-140.58;100.00
17309;BME280;8772;42.804;23.426;2023-02-14T02:54:59;76278.44;;;-140.58;100.00
17309;BME280;8772;42.804;23.426;2023-02-14T02:57:32;76284.59;;;-140.58;100.00
17309;BME280;8772;42.804;23.426;2023-02-14T03:00:01;76292.81;;;-140.58;100.00
17309;BME280;8772;42.804;23.426;2023-02-14T03:02:31;76288.69;;;-140.58;100.00
17309;BME280;8772;42.804;23.426;2023-02-14T03:05:01;76292.81;;;-140.58;100.00
17309;BME280;8772;42.804;23.426;2023-02-14T03:07:33;76296.91;;;-140.58;100.00
17309;BME280;8772;42.804;23.426;2023-02-14T03:10:03;76292.81;;;-140.58;100.00
17309;BME280;8772;42.804;23.426;2023-02-14T03:13:04;76288.69;;;-140.58;100.00
17309;BME280;8772;42.804;23.426;2023-02-14T03:15:59;76294.84;;;-140.58;100.00
17309;BME280;8772;42.804;23.426;2023-02-14T03:18:43;76296.91;;;-140.58;100.00
17309;BME280;8772;42.804;23.426;2023-02-14T03:21:38;76284.59;;;-140.58;100.00
17309;BME280;8772;42.804;23.426;2023-02-14T03:24:14;76305.13;;;-140.58;100.00
17309;BME280;8772;42.804;23.426;2023-02-14T03:26:46;76298.97;;;-140.58;100.00
17309;BME280;8772;42.804;23.426;2023-02-14T03:29:19;76311.28;;;-140.58;100.00
17309;BME280;8772;42.804;23.426;2023-02-14T03:31:56;76313.34;;;-140.58;100.00
17309;BME280;8772;42.804;23.426;2023-02-14T03:34:29;76309.22;;;-140.58;100.00
17309;BME280;8772;42.804;23.426;2023-02-14T03:37:00;76282.53;;;-140.58;100.00
17309;BME280;8772;42.804;23.426;2023-02-14T03:39:37;76286.66;;;-140.58;100.00
17309;BME280;8772;42.804;23.426;2023-02-14T03:42:09;76296.91;;;-140.58;100.00
17309;BME280;8772;42.804;23.426;2023-02-14T03:44:39;76278.44;;;-140.58;100.00
17309;BME280;8772;42.804;23.426;2023-02-14T03:47:10;76274.31;;;-140.58;100.00
17309;BME280;8772;42.804;23.426;2023-02-14T03:49:42;76280.50;;;-140.58;100.00
17309;BME280;8772;42.804;23.426;2023-02-14T03:52:10;76280.50;;;-140.58;100.00
17309;BME280;8772;42.804;23.426;2023-02-14T03:54:39;76284.59;;;-140.58;100.00
17309;BME280;8772;42.804;23.426;2023-02-14T03:57:12;76268.16;;;-140.58;100.00
17309;BME280;8772;42.804;23.426;2023-02-14T03:59:42;76272.28;;;-140.58;100.00
17309;BME280;8772;42.804;23.426;2023-02-14T04:02:11;76259.97;;;-140.58;100.00
17309;BME280;8772;42.804;23.426;2023-02-14T04:04:42;76249.69;;;-140.58;100.00
17309;BME280;8772;42.804;23.426;2023-02-14T04:07:12;76255.84;;;-140.58;100.00
17309;BME280;8772;42.804;23.426;2023-02-14T04:09:40;76259.97;;;-140.58;100.00
17309;BME280;8772;42.804;23.426;2023-02-14T04:12:08;76259.97;;;-140.58;100.00
17309;BME280;8772;42.804;23.426;2023-02-14T04:14:35;76255.84;;;-140.58;100.00
17309;BME280;8772;42.804;23.426;2023-02-14T04:17:02;76255.84;;;-140.58;100.00
17309;BME280;8772;42.804;23.426;2023-02-14T04:19:47;76253.81;;;-140.58;100.00
17309;BME280;8772;42.804;23.426;2023-02-14T04:22:14;76259.97;;;-140.58;100.00
17309;BME280;8772;42.804;23.426;2023-02-14T04:24:42;76255.84;;;-140.58;100.00
17309;BME280;8772;42.804;23.426;2023-02-14T04:27:09;76276.38;;;-140.58;100.00
17309;BME280;8772;42.804;23.426;2023-02-14T04:29:37;76276.38;;;-140.58;100.00
17309;BME280;8772;42.804;23.426;2023-02-14T04:32:06;76284.59;;;-140.58;100.00
17309;BME280;8772;42.804;23.426;2023-02-14T04:34:33;76292.81;;;-140.58;100.00
17309;BME280;8772;42.804;23.426;2023-02-14T04:37:00;76288.69;;;-140.58;100.00
17309;BME280;8772;42.804;23.426;2023-02-14T04:39:27;76292.81;;;-140.58;100.00
17309;BME280;8772;42.804;23.426;2023-02-14T04:41:56;76292.81;;;-140.58;100.00
17309;BME280;8772;42.804;23.426;2023-02-14T04:44:23;76294.84;;;-140.58;100.00
17309;BME280;8772;42.804;23.426;2023-02-14T04:46:50;76296.91;;;-140.58;100.00
17309;BME280;8772;42.804;23.426;2023-02-14T04:49:17;76272.28;;;-140.58;100.00
17309;BME280;8772;42.804;23.426;2023-02-14T04:51:44;76272.28;;;-140.58;100.00
17309;BME280;8772;42.804;23.426;2023-02-14T04:54:11;76286.66;;;-140.58;100.00
17309;BME280;8772;42.804;23.426;2023-02-14T04:56:38;76280.50;;;-140.58;100.00
17309;BME280;8772;42.804;23.426;2023-02-14T04:59:06;76284.59;;;-140.58;100.00
17309;BME280;8772;42.804;23.426;2023-02-14T05:01:33;76286.66;;;-140.58;100.00
17309;BME280;8772;42.804;23.426;2023-02-14T05:04:00;76294.84;;;-140.58;100.00
17309;BME280;8772;42.804;23.426;2023-02-14T05:06:27;76296.91;;;-140.58;100.00
17309;BME280;8772;42.804;23.426;2023-02-14T05:08:54;76284.59;;;-140.58;100.00
17309;BME280;8772;42.804;23.426;2023-02-14T05:11:21;76284.59;;;-140.58;100.00
17309;BME280;8772;42.804;23.426;2023-02-14T05:13:48;76292.81;;;-140.58;100.00
17309;BME280;8772;42.804;23.426;2023-02-14T05:16:16;76294.84;;;-140.58;100.00
17309;BME280;8772;42.804;23.426;2023-02-14T05:18:43;76296.91;;;-140.58;100.00
17309;BME280;8772;42.804;23.426;2023-02-14T05:21:10;76288.69;;;-140.58;100.00
17309;BME280;8772;42.804;23.426;2023-02-14T05:23:37;76301.00;;;-140.58;100.00
17309;BME280;8772;42.804;23.426;2023-02-14T05:26:04;76292.81;;;-140.58;100.00
17309;BME280;8772;42.804;23.426;2023-02-14T05:28:31;76284.59;;;-140.58;100.00
17309;BME280;8772;42.804;23.426;2023-02-14T05:30:59;76288.69;;;-140.58;100.00
17309;BME280;8772;42.804;23.426;2023-02-14T05:33:27;76290.75;;;-140.58;100.00
17309;BME280;8772;42.804;23.426;2023-02-14T05:35:57;76284.59;;;-140.58;100.00
17309;BME280;8772;42.804;23.426;2023-02-14T05:38:24;76274.31;;;-140.58;100.00
17309;BME280;8772;42.804;23.426;2023-02-14T05:40:52;76264.06;;;-140.58;100.00
17309;BME280;8772;42.804;23.426;2023-02-14T05:43:19;76282.53;;;-140.58;100.00
17309;BME280;8772;42.804;23.426;2023-02-14T05:45:46;76284.59;;;-140.58;100.00
17309;BME280;8772;42.804;23.426;2023-02-14T05:48:13;76274.31;;;-140.58;100.00
17309;BME280;8772;42.804;23.426;2023-02-14T05:50:42;76268.16;;;-140.58;100.00
17309;BME280;8772;42.804;23.426;2023-02-14T05:53:10;76270.22;;;-140.58;100.00
17309;BME280;8772;42.804;23.426;2023-02-14T05:55:37;76268.16;;;-140.58;100.00
17309;BME280;8772;42.804;23.426;2023-02-14T05:58:03;76255.84;;;-140.58;100.00
17309;BME280;8772;42.804;23.426;2023-02-14T06:00:30;76264.06;;;-140.58;100.00
17309;BME280;8772;42.804;23.426;2023-02-14T06:02:57;76257.91;;;-140.58;100.00
17309;BME280;8772;42.804;23.426;2023-02-14T06:05:24;76255.84;;;-140.58;100.00
17309;BME280;8772;42.804;23.426;2023-02-14T06:07:52;76245.59;;;-140.58;100.00
17309;BME280;8772;42.804;23.426;2023-02-14T06:10:22;76241.47;;;-140.58;100.00
17309;BME280;8772;42.804;23.426;2023-02-14T06:12:50;76235.31;;;-140.58;100.00
17309;BME280;8772;42.804;23.426;2023-02-14T06:15:18;76229.16;;;-140.58;100.00
17309;BME280;8772;42.804;23.426;2023-02-14T06:17:49;76223.00;;;-140.58;100.00
17309;BME280;8772;42.804;23.426;2023-02-14T06:20:17;76206.59;;;-140.58;100.00
17309;BME280;8772;42.804;23.426;2023-02-14T06:22:44;76206.59;;;-140.58;100.00
17309;BME280;8772;42.804;23.426;2023-02-14T06:25:12;76206.59;;;-140.58;100.00
17309;BME280;8772;42.804;23.426;2023-02-14T06:27:39;76200.44;;;-140.58;100.00
17309;BME280;8772;42.804;23.426;2023-02-14T06:30:09;76194.25;;;-140.58;100.00
17309;BME280;8772;42.804;23.426;2023-02-14T06:32:36;76186.06;;;-140.58;100.00
17309;BME280;8772;42.804;23.426;2023-02-14T06:35:03;76169.63;;;-140.58;100.00
17309;BME280;8772;42.804;23.426;2023-02-14T06:37:30;76155.25;;;-140.58;100.00
17309;BME280;8772;42.804;23.426;2023-02-14T06:39:57;76132.69;;;-140.58;100.00
17309;BME280;8772;42.804;23.426;2023-02-14T06:42:25;76136.78;;;-140.58;100.00
17309;BME280;8772;42.804;23.426;2023-02-14T06:44:52;76116.25;;;-140.58;100.00
17309;BME280;8772;42.804;23.426;2023-02-14T06:47:19;76095.72;;;-140.58;100.00
17309;BME280;8772;42.804;23.426;2023-02-14T06:49:46;76067.00;;;-140.58;100.00
17309;BME280;8772;42.804;23.426;2023-02-14T06:52:12;76048.50;;;-140.58;100.00
17309;BME280;8772;42.804;23.426;2023-02-14T06:54:39;76040.31;;;-140.58;100.00
17309;BME280;8772;42.804;23.426;2023-02-14T06:57:06;76017.72;;;-140.58;100.00
17309;BME280;8772;42.804;23.426;2023-02-14T06:59:34;75995.13;;;-140.58;100.00
17309;BME280;8772;42.804;23.426;2023-02-14T07:02:01;75962.28;;;-140.58;100.00
17309;BME280;8772;42.804;23.426;2023-02-14T07:04:28;75931.50;;;-140.58;100.00
17309;BME280;8772;42.804;23.426;2023-02-14T07:06:55;75915.09;;;-140.58;100.00
17309;BME280;8772;42.804;23.426;2023-02-14T07:09:23;75898.66;;;-140.58;100.00
17309;BME280;8772;42.804;23.426;2023-02-14T07:11:50;75878.13;;;-140.58;100.00
17309;BME280;8772;42.804;23.426;2023-02-14T07:14:17;75865.81;;;-140.58;100.00
17309;BME280;8772;42.804;23.426;2023-02-14T07:16:45;75845.28;;;-140.58;100.00
17309;BME280;8772;42.804;23.426;2023-02-14T07:19:12;75820.66;;;-140.58;100.00
17309;BME280;8772;42.804;23.426;2023-02-14T07:21:38;75808.34;;;-140.58;100.00
17309;BME280;8772;42.804;23.426;2023-02-14T07:24:05;75791.94;;;-140.58;100.00
17309;BME280;8772;42.804;23.426;2023-02-14T07:26:32;75775.50;;;-140.58;100.00
17309;BME280;8772;42.804;23.426;2023-02-14T07:28:59;75761.13;;;-140.58;100.00
17309;BME280;8772;42.804;23.426;2023-02-14T07:31:26;75722.13;;;-140.58;100.00
17309;BME280;8772;42.804;23.426;2023-02-14T07:33:56;75705.72;;;-140.58;100.00
17309;BME280;8772;42.804;23.426;2023-02-14T07:36:25;75685.19;;;-140.58;100.00
17309;BME280;8772;42.804;23.426;2023-02-14T07:38:52;75668.78;;;-140.58;100.00
17309;BME280;8772;42.804;23.426;2023-02-14T07:41:20;75668.78;;;-140.58;100.00
17309;BME280;8772;42.804;23.426;2023-02-14T07:43:47;75648.25;;;-140.58;100.00
17309;BME280;8772;42.804;23.426;2023-02-14T07:46:14;75627.72;;;-140.58;100.00
17309;BME280;8772;42.804;23.426;2023-02-14T07:48:42;75619.50;;;-140.58;100.00
17309;BME280;8772;42.804;23.426;2023-02-14T07:51:10;75607.19;;;-140.58;100.00
17309;BME280;8772;42.804;23.426;2023-02-14T07:53:37;75586.66;;;-140.58;100.00
17309;BME280;8772;42.804;23.426;2023-02-14T07:56:04;75572.31;;;-140.58;100.00
17309;BME280;8772;42.804;23.426;2023-02-14T07:58:31;75549.72;;;-140.58;100.00
17309;BME280;8772;42.804;23.426;2023-02-14T08:00:58;75545.63;;;-140.58;100.00
17309;BME280;8772;42.804;23.426;2023-02-14T08:03:25;75529.19;;;-140.58;100.00
17309;BME280;8772;42.804;23.426;2023-02-14T08:05:52;75512.78;;;-140.58;100.00
17309;BME280;8772;42.804;23.426;2023-02-14T08:08:25;75502.53;;;-140.58;99.16
17309;BME280;8772;42.804;23.426;2023-02-14T08:10:52;75508.69;;;-140.58;100.00
17309;BME280;8772;42.804;23.426;2023-02-14T08:13:19;75488.16;;;-140.58;96.38
17309;BME280;8772;42.804;23.426;2023-02-14T08:15:46;75488.16;;;-140.58;95.94
17309;BME280;8772;42.804;23.426;2023-02-14T08:18:34;75488.16;;;-140.58;94.12
17309;BME280;8772;42.804;23.426;2023-02-14T08:21:02;75479.94;;;-140.58;95.89
17309;BME280;8772;42.804;23.426;2023-02-14T08:23:31;75465.56;;;-140.58;94.20
17309;BME280;8772;42.804;23.426;2023-02-14T08:25:58;75457.38;;;-140.58;95.14
17309;BME280;8772;42.804;23.426;2023-02-14T08:28:26;75440.94;;;-140.58;95.20
17309;BME280;8772;42.804;23.426;2023-02-14T08:30:53;75443.00;;;-140.58;94.67
17309;BME280;8772;42.804;23.426;2023-02-14T08:33:20;75434.78;;;-140.58;92.94
17309;BME280;8772;42.804;23.426;2023-02-14T08:35:48;75447.09;;;-140.58;94.15
17309;BME280;8772;42.804;23.426;2023-02-14T08:38:16;75443.00;;;-140.58;94.55
17309;BME280;8772;42.804;23.426;2023-02-14T08:40:45;75447.09;;;-140.58;93.97
17309;BME280;8772;42.804;23.426;2023-02-14T08:43:13;75438.91;;;-140.58;94.12
17309;BME280;8772;42.804;23.426;2023-02-14T08:45:40;75434.78;;;-140.58;93.20
17309;BME280;8772;42.804;23.426;2023-02-14T08:48:08;75430.69;;;-140.58;94.07
17309;BME280;8772;42.804;23.426;2023-02-14T08:50:36;75430.69;;;-140.58;94.01
17309;BME280;8772;42.804;23.426;2023-02-14T08:53:06;75418.38;;;-140.58;89.61
17309;BME280;8772;42.804;23.426;2023-02-14T08:55:34;75426.56;;;-140.58;90.36
17309;BME280;8772;42.804;23.426;2023-02-14T08:58:03;75422.47;;;-140.58;91.00
17309;BME280;8772;42.804;23.426;2023-02-14T09:00:31;75410.16;;;-140.58;87.54
17309;BME280;8772;42.804;23.426;2023-02-14T09:02:58;75393.75;;;-140.58;86.25
17309;BME280;8772;42.804;23.426;2023-02-14T09:05:25;75393.75;;;-140.58;86.34
17309;BME280;8772;42.804;23.426;2023-02-14T09:07:52;75385.53;;;-140.58;88.40
17309;BME280;8772;42.804;23.426;2023-02-14T09:10:22;75373.22;;;-140.58;87.76
17309;BME280;8772;42.804;23.426;2023-02-14T09:12:49;75362.94;;;-140.58;88.71
17309;BME280;8772;42.804;23.426;2023-02-14T09:15:17;75373.22;;;-140.58;87.45
17309;BME280;8772;42.804;23.426;2023-02-14T09:17:45;75381.44;;;-140.58;88.62
17309;BME280;8772;42.804;23.426;2023-02-14T09:20:14;75373.22;;;-140.58;89.17
17309;BME280;8772;42.804;23.426;2023-02-14T09:22:41;75385.53;;;-140.58;87.67
17309;BME280;8772;42.804;23.426;2023-02-14T09:25:08;75393.75;;;-140.58;87.57
17309;BME280;8772;42.804;23.426;2023-02-14T09:27:35;75408.09;;;-140.58;89.53
17309;BME280;8772;42.804;23.426;2023-02-14T09:30:02;75418.38;;;-140.58;90.14
17309;BME280;8772;42.804;23.426;2023-02-14T09:32:31;75440.94;;;-140.58;90.99
17309;BME280;8772;42.804;23.426;2023-02-14T09:34:58;75436.84;;;-140.58;91.73
17309;BME280;8772;42.804;23.426;2023-02-14T09:37:25;75432.72;;;-140.58;91.37
17309;BME280;8772;42.804;23.426;2023-02-14T09:39:52;75430.69;;;-140.58;91.06
17309;BME280;8772;42.804;23.426;2023-02-14T09:42:36;75428.63;;;-140.58;90.62
17309;BME280;8772;42.804;23.426;2023-02-14T09:45:10;75426.56;;;-140.58;90.47
17309;BME280;8772;42.804;23.426;2023-02-14T09:47:43;75432.72;;;-140.58;90.38
17309;BME280;8772;42.804;23.426;2023-02-14T09:50:18;75428.63;;;-140.58;91.80
17309;BME280;8772;42.804;23.426;2023-02-14T09:52:47;75422.47;;;-140.58;90.96
17309;BME280;8772;42.804;23.426;2023-02-14T09:55:16;75424.53;;;-140.58;91.15
17309;BME280;8772;42.804;23.426;2023-02-14T09:57:53;75428.63;;;-140.58;90.57
17309;BME280;8772;42.804;23.426;2023-02-14T10:00:31;75414.25;;;-140.58;90.49
17309;BME280;8772;42.804;23.426;2023-02-14T10:03:23;75408.09;;;-140.58;90.36
17309;BME280;8772;42.804;23.426;2023-02-14T10:06:01;75416.31;;;-140.58;88.80
17309;BME280;8772;42.804;23.426;2023-02-14T10:08:43;75408.09;;;-140.58;88.59
17309;BME280;8772;42.804;23.426;2023-02-14T10:11:14;75393.75;;;-140.58;89.88
17309;BME280;8772;42.804;23.426;2023-02-14T10:13:47;75395.78;;;-140.58;89.80
17309;BME280;8772;42.804;23.426;2023-02-14T10:16:19;75385.53;;;-140.58;88.19
17309;BME280;8772;42.804;23.426;2023-02-14T10:18:53;75377.31;;;-140.58;88.41
17309;BME280;8772;42.804;23.426;2023-02-14T10:21:24;75362.94;;;-140.58;85.70
17309;BME280;8772;42.804;23.426;2023-02-14T10:23:56;75360.91;;;-140.58;87.37
17309;BME280;8772;42.804;23.426;2023-02-14T10:26:26;75356.78;;;-140.58;86.08
17309;BME280;8772;42.804;23.426;2023-02-14T10:28:54;75352.69;;;-140.58;84.69
17309;BME280;8772;42.804;23.426;2023-02-14T10:31:22;75352.69;;;-140.58;84.44
17309;BME280;8772;42.804;23.426;2023-02-14T10:33:56;75360.91;;;-140.58;83.84
17309;BME280;8772;42.804;23.426;2023-02-14T10:36:40;75340.38;;;-140.58;85.27
17309;BME280;8772;42.804;23.426;2023-02-14T10:39:25;75360.91;;;-140.58;85.63
17309;BME280;8772;42.804;23.426;2023-02-14T10:41:58;75360.91;;;-140.58;86.25
17309;BME280;8772;42.804;23.426;2023-02-14T10:44:40;75354.75;;;-140.58;87.98
17309;BME280;8772;42.804;23.426;2023-02-14T10:47:30;75348.59;;;-140.58;87.10
17309;BME280;8772;42.804;23.426;2023-02-14T10:50:10;75344.47;;;-140.58;86.40
17309;BME280;8772;42.804;23.426;2023-02-14T10:52:43;75348.59;;;-140.58;87.00
17309;BME280;8772;42.804;23.426;2023-02-14T10:55:18;75340.38;;;-140.58;86.89
17309;BME280;8772;42.804;23.426;2023-02-14T10:57:48;75346.53;;;-140.58;88.76
17309;BME280;8772;42.804;23.426;2023-02-14T11:00:20;75346.53;;;-140.58;87.87
17309;BME280;8772;42.804;23.426;2023-02-14T11:02:51;75330.13;;;-140.58;86.77
17309;BME280;8772;42.804;23.426;2023-02-14T11:05:25;75334.22;;;-140.58;87.45
17309;BME280;8772;42.804;23.426;2023-02-14T11:07:53;75340.38;;;-140.58;86.15
17309;BME280;8772;42.804;23.426;2023-02-14T11:10:25;75336.28;;;-140.58;86.97
17309;BME280;8772;42.804;23.426;2023-02-14T11:12:54;75334.22;;;-140.58;86.18
17309;BME280;8772;42.804;23.426;2023-02-14T11:15:24;75348.59;;;-140.58;86.58
17309;BME280;8772;42.804;23.426;2023-02-14T11:18:07;75344.47;;;-140.58;86.26
17309;BME280;8772;42.804;23.426;2023-02-14T11:20:37;75352.69;;;-140.58;87.42
17309;BME280;8772;42.804;23.426;2023-02-14T11:23:17;75348.59;;;-140.58;88.03
17309;BME280;8772;42.804;23.426;2023-02-14T11:25:50;75326.00;;;-140.58;87.41
17309;BME280;8772;42.804;23.426;2023-02-14T11:28:18;75323.97;;;-140.58;86.42
17309;BME280;8772;42.804;23.426;2023-02-14T11:30:47;75315.75;;;-140.58;86.16
17309;BME280;8772;42.804;23.426;2023-02-14T11:33:26;75330.13;;;-140.58;85.33
17309;BME280;8772;42.804;23.426;2023-02-14T11:35:56;75326.00;;;-140.58;84.97
17309;BME280;8772;42.804;23.426;2023-02-14T11:38:27;75323.97;;;-140.58;82.91
17309;BME280;8772;42.804;23.426;2023-02-14T11:40:56;75336.28;;;-140.58;82.41
17309;BME280;8772;42.804;23.426;2023-02-14T11:43:32;75317.81;;;-140.58;82.77
17309;BME280;8772;42.804;23.426;2023-02-14T11:46:12;75315.75;;;-140.58;82.36
17309;BME280;8772;42.804;23.426;2023-02-14T11:48:54;75321.91;;;-140.58;81.50
17309;BME280;8772;42.804;23.426;2023-02-14T11:51:41;75328.06;;;-140.58;82.39
17309;BME280;8772;42.804;23.426;2023-02-14T11:54:31;75311.66;;;-140.58;81.41
17309;BME280;8772;42.804;23.426;2023-02-14T11:57:06;75311.66;;;-140.58;82.35
17309;BME280;8772;42.804;23.426;2023-02-14T11:59:37;75307.53;;;-140.58;80.79
17309;BME280;8772;42.804;23.426;2023-02-14T12:02:17;75317.81;;;-140.58;81.42
17309;BME280;8772;42.804;23.426;2023-02-14T12:04:48;75311.66;;;-140.58;81.95
17309;BME280;8772;42.804;23.426;2023-02-14T12:07:20;75311.66;;;-140.58;81.34
17309;BME280;8772;42.804;23.426;2023-02-14T12:12:52;75299.34;;;-140.58;82.75
17309;BME280;8772;42.804;23.426;2023-02-14T12:15:28;75282.91;;;-140.58;80.47
17309;BME280;8772;42.804;23.426;2023-02-14T12:18:05;75278.81;;;-140.58;79.72
17309;BME280;8772;42.804;23.426;2023-02-14T12:20:44;75278.81;;;-140.58;80.12
17309;BME280;8772;42.804;23.426;2023-02-14T12:23:17;75264.44;;;-140.58;79.55
17309;BME280;8772;42.804;23.426;2023-02-14T12:25:50;75260.34;;;-140.58;81.02
17309;BME280;8772;42.804;23.426;2023-02-14T12:28:20;75258.28;;;-140.58;79.03
17309;BME280;8772;42.804;23.426;2023-02-14T12:30:48;75262.38;;;-140.58;77.66
17309;BME280;8772;42.804;23.426;2023-02-14T12:33:18;75248.03;;;-140.58;76.87
17309;BME280;8772;42.804;23.426;2023-02-14T12:35:52;75266.50;;;-140.58;77.36
17309;BME280;8772;42.804;23.426;2023-02-14T12:38:29;75256.22;;;-140.58;78.86
17309;BME280;8772;42.804;23.426;2023-02-14T12:41:08;75254.19;;;-140.58;77.03
17309;BME280;8772;42.804;23.426;2023-02-14T12:43:47;75256.22;;;-140.58;79.74
17309;BME280;8772;42.804;23.426;2023-02-14T12:46:27;75241.88;;;-140.58;77.80
17309;BME280;8772;42.804;23.426;2023-02-14T12:49:12;75231.59;;;-140.58;77.63
17309;BME280;8772;42.804;23.426;2023-02-14T12:51:48;75221.34;;;-140.58;75.80
17309;BME280;8772;42.804;23.426;2023-02-14T12:54:31;75204.94;;;-140.58;76.51
17309;BME280;8772;42.804;23.426;2023-02-14T12:57:06;75196.72;;;-140.58;77.05
17309;BME280;8772;42.804;23.426;2023-02-14T12:59:43;75186.44;;;-140.58;76.00
17309;BME280;8772;42.804;23.426;2023-02-14T13:05:20;75174.13;;;-140.58;75.44
17309;BME280;8772;42.804;23.426;2023-02-14T13:08:02;75172.09;;;-140.58;74.50
17309;BME280;8772;42.804;23.426;2023-02-14T13:10:43;75167.97;;;-140.58;72.96